Country
Station

 

Weather  for  Balikesir  -  Turkey    Turkey

  
-1 °C (30 °F)
    
 
 

Current METAR for Balikesir is :

LTBF 240050Z VRB01KT CAVOK M01/M02 Q1020 NOSIG

 

This is a report for Balikesir - Turkey.
 
The report was made 42 minutes ago, at 00:50 UTC .
The wind was blowing at a speed of 0.5 meters per second (1.2 miles per hour) from variable directions.
 
The temperature was -1 °C (30 °F), with a dew-point at -2 °C (28 °F).
The atmospheric pressure was 1020 hPa (30.12 inHg).
The relative humidity was 92.9%.
 
There were no clouds below 1500 meter (5000 feet) and no cumulonimbus clouds.
 
The overall visibility was greater than 10 kilometers (6.2 miles).
 

 
 
 
 

Country :   A   B   C   D   E   F   G   H   I   J   K   L   M   N   O   P   Q   R   S   T   U   V   W   Y   Z

 

Site Info  |  Disclaimer  |  Credits  |  Privacy
Contact us  |  Add to favorites
© 2013-2020 METARs - All rights reserved